createdAt,value
2019-01-29T00:00:36.450Z,96140.56
2019-01-29T00:01:40.242Z,96148.77
2019-01-29T00:02:44.212Z,96151.64
2019-01-29T00:03:47.940Z,96142.83
2019-01-29T00:04:51.746Z,96152.98
2019-01-29T00:05:55.525Z,96146.62
2019-01-29T00:06:59.218Z,96140.59
2019-01-29T00:08:02.916Z,96144.39
2019-01-29T00:09:08.358Z,96144.39
2019-01-29T00:10:12.169Z,96140.68
2019-01-29T00:11:15.940Z,96145.81
2019-01-29T00:12:19.644Z,96142.94
2019-01-29T00:13:23.329Z,96140.77
2019-01-29T00:14:27.020Z,96136.97
2019-01-29T00:15:30.813Z,96134.74
2019-01-29T00:16:34.611Z,96137.08
2019-01-29T00:17:38.321Z,96131.36
2019-01-29T00:18:41.999Z,96138.36
2019-01-29T00:19:45.692Z,96135.49
2019-01-29T00:20:49.390Z,96135.61
2019-01-29T00:21:53.079Z,96145.75
2019-01-29T00:22:56.775Z,96137.64
2019-01-29T00:24:00.470Z,96146.34
2019-01-29T00:25:05.698Z,96143.33
2019-01-29T00:26:09.764Z,96154.15
2019-01-29T00:27:13.452Z,96154.52
2019-01-29T00:28:17.179Z,96155.83
2019-01-29T00:29:20.874Z,96156.27
2019-01-29T00:30:24.775Z,96153.14
2019-01-29T00:31:28.464Z,96152.70
2019-01-29T00:32:32.162Z,96158.75
2019-01-29T00:33:35.863Z,96157.83
2019-01-29T00:34:39.546Z,96160.73
2019-01-29T00:35:43.193Z,96151.33
2019-01-29T00:36:46.934Z,96161.63
2019-01-29T00:37:50.632Z,96162.18
2019-01-29T00:38:54.317Z,96160.95
2019-01-29T00:39:57.975Z,96168.20
2019-01-29T00:41:01.807Z,96164.11
2019-01-29T00:42:05.501Z,96163.44
2019-01-29T00:43:11.416Z,96162.41
2019-01-29T00:44:15.138Z,96153.40
2019-01-29T00:45:19.342Z,96156.27
2019-01-29T00:46:22.987Z,96157.36
2019-01-29T00:47:26.634Z,96155.94
2019-01-29T00:48:30.322Z,96166.59
2019-01-29T00:49:34.025Z,96159.42
2019-01-29T00:50:37.673Z,96151.64
2019-01-29T00:51:41.327Z,96162.80
2019-01-29T00:52:45.095Z,96160.65
2019-01-29T00:53:48.892Z,96160.98
2019-01-29T00:54:52.581Z,96155.38
2019-01-29T00:55:56.281Z,96158.05
2019-01-29T00:56:59.969Z,96157.36
2019-01-29T00:58:04.001Z,96156.24
2019-01-29T00:59:07.796Z,96148.20
2019-01-29T01:00:25.172Z,96152.00
2019-01-29T01:01:28.915Z,96147.57
2019-01-29T01:02:32.567Z,96158.28
2019-01-29T01:03:36.260Z,96150.91
2019-01-29T01:04:40.466Z,96153.65
2019-01-29T01:05:44.125Z,96149.83
2019-01-29T01:06:47.852Z,96148.30
2019-01-29T01:07:51.951Z,96146.56
2019-01-29T01:08:55.606Z,96145.14
2019-01-29T01:09:59.343Z,96157.52
2019-01-29T01:11:03.339Z,96152.73
2019-01-29T01:12:07.092Z,96154.98
2019-01-29T01:13:10.740Z,96154.98
2019-01-29T01:14:14.418Z,96154.56
2019-01-29T01:15:18.408Z,96163.46
2019-01-29T01:16:22.127Z,96153.98
2019-01-29T01:17:25.740Z,96162.32
2019-01-29T01:18:29.722Z,96154.52
2019-01-29T01:19:33.357Z,96150.50
2019-01-29T01:20:37.125Z,96162.63
2019-01-29T01:21:40.759Z,96155.62
2019-01-29T01:22:50.623Z,96158.64
2019-01-29T01:23:49.745Z,96163.21
2019-01-29T01:24:53.380Z,96154.54
2019-01-29T01:25:57.413Z,96151.61
2019-01-29T01:27:01.053Z,96152.17
2019-01-29T01:28:04.682Z,96147.84
2019-01-29T01:29:08.313Z,96147.95
2019-01-29T01:30:17.526Z,96151.41
2019-01-29T01:31:21.232Z,96141.18
2019-01-29T01:32:24.862Z,96140.52
2019-01-29T01:33:28.499Z,96141.80
2019-01-29T01:34:32.194Z,96144.84
2019-01-29T01:35:35.757Z,96134.22
2019-01-29T01:36:39.417Z,96136.00
2019-01-29T01:37:43.052Z,96133.12
2019-01-29T01:38:46.687Z,96139.38
2019-01-29T01:39:50.319Z,96139.81
2019-01-29T01:40:53.948Z,96135.58
2019-01-29T01:41:57.683Z,96135.16
2019-01-29T01:43:01.317Z,96132.92
2019-01-29T01:44:05.055Z,96127.94
2019-01-29T01:45:11.206Z,96131.59
2019-01-29T01:46:14.842Z,96136.80
2019-01-29T01:47:18.572Z,96142.49
2019-01-29T01:48:22.209Z,96136.61
2019-01-29T01:49:25.911Z,96134.94
2019-01-29T01:50:29.541Z,96133.35
2019-01-29T01:51:33.175Z,96129.75
2019-01-29T01:52:36.847Z,96130.81
2019-01-29T01:53:40.480Z,96135.55
2019-01-29T01:54:44.114Z,96133.09
2019-01-29T01:55:47.748Z,96137.44
2019-01-29T01:56:51.376Z,96134.16
2019-01-29T01:57:55.048Z,96132.83
2019-01-29T01:58:58.681Z,96127.78
2019-01-29T02:00:02.324Z,96121.01
2019-01-29T02:01:06.118Z,96128.94
2019-01-29T02:02:09.822Z,96123.67
2019-01-29T02:03:13.489Z,96124.42
2019-01-29T02:04:17.122Z,96119.63
2019-01-29T02:05:21.127Z,96121.77
2019-01-29T02:06:24.827Z,96118.00
2019-01-29T02:07:28.467Z,96117.22
2019-01-29T02:08:32.314Z,96113.23
2019-01-29T02:09:35.983Z,96115.45
2019-01-29T02:10:39.683Z,96107.33
2019-01-29T02:11:43.316Z,96107.86
2019-01-29T02:12:46.944Z,96099.81
2019-01-29T02:13:50.614Z,96108.48
2019-01-29T02:14:54.308Z,96104.10
2019-01-29T02:15:57.950Z,96107.73
2019-01-29T02:17:01.579Z,96105.94
2019-01-29T02:18:05.275Z,96116.03
2019-01-29T02:19:08.934Z,96118.09
2019-01-29T02:20:14.908Z,96120.14
2019-01-29T02:21:18.544Z,96114.92
2019-01-29T02:22:22.183Z,96118.86
2019-01-29T02:23:25.821Z,96116.17
2019-01-29T02:24:29.483Z,96124.75
2019-01-29T02:25:33.487Z,96129.77
2019-01-29T02:26:37.196Z,96129.42
2019-01-29T02:27:40.881Z,96133.30
2019-01-29T02:28:44.525Z,96134.95
2019-01-29T02:29:48.528Z,96130.15
2019-01-29T02:30:52.170Z,96130.47
2019-01-29T02:31:55.806Z,96127.63
2019-01-29T02:32:59.816Z,96127.98
2019-01-29T02:34:03.451Z,96126.11
2019-01-29T02:35:07.524Z,96126.45
2019-01-29T02:36:11.159Z,96125.98
2019-01-29T02:37:14.792Z,96133.31
2019-01-29T02:38:18.434Z,96129.20
2019-01-29T02:39:22.069Z,96120.39
2019-01-29T02:40:28.665Z,96121.85
2019-01-29T02:41:32.409Z,96123.80
2019-01-29T02:42:36.123Z,96126.03
2019-01-29T02:43:39.756Z,96121.30
2019-01-29T02:44:43.395Z,96125.18
2019-01-29T02:45:47.078Z,96124.11
2019-01-29T02:46:50.695Z,96125.00
2019-01-29T02:47:54.334Z,96123.89
2019-01-29T02:48:57.975Z,96119.20
2019-01-29T02:50:01.589Z,96120.57
2019-01-29T02:51:05.361Z,96123.67
2019-01-29T02:52:08.994Z,96120.90
2019-01-29T02:53:18.021Z,96115.65
2019-01-29T02:54:17.978Z,96116.98
2019-01-29T02:55:21.619Z,96116.66
2019-01-29T02:56:25.284Z,96107.22
2019-01-29T02:57:29.002Z,96109.98
2019-01-29T02:58:32.636Z,96108.78
2019-01-29T02:59:36.316Z,96114.36
2019-01-29T03:00:39.953Z,96104.78
2019-01-29T03:01:44.035Z,96107.67
2019-01-29T03:02:47.866Z,96107.02
2019-01-29T03:03:51.510Z,96110.12
2019-01-29T03:04:55.136Z,96107.22
2019-01-29T03:05:58.773Z,96105.01
2019-01-29T03:07:02.448Z,96106.57
2019-01-29T03:08:06.281Z,96104.78
2019-01-29T03:09:09.911Z,96098.66
2019-01-29T03:10:16.612Z,96096.99
2019-01-29T03:11:20.241Z,96099.44
2019-01-29T03:12:23.917Z,96094.65
2019-01-29T03:13:28.017Z,96098.75
2019-01-29T03:14:31.654Z,96100.20
2019-01-29T03:15:35.504Z,96098.28
2019-01-29T03:16:39.130Z,96086.48
2019-01-29T03:17:42.804Z,96091.81
2019-01-29T03:18:46.442Z,96092.46
2019-01-29T03:19:50.072Z,96091.44
2019-01-29T03:20:53.696Z,96094.67
2019-01-29T03:21:57.325Z,96093.33
2019-01-29T03:23:01.423Z,96094.44
2019-01-29T03:24:05.355Z,96096.20
2019-01-29T03:25:11.396Z,96100.19
2019-01-29T03:26:15.105Z,96100.50
2019-01-29T03:27:18.798Z,96105.61
2019-01-29T03:28:22.483Z,96095.45
2019-01-29T03:29:26.407Z,96092.05
2019-01-29T03:30:30.032Z,96098.05
2019-01-29T03:31:33.703Z,96104.88
2019-01-29T03:32:37.313Z,96103.87
2019-01-29T03:33:40.971Z,96099.16
2019-01-29T03:34:44.604Z,96099.41
2019-01-29T03:35:48.231Z,96101.44
2019-01-29T03:36:52.151Z,96097.41
2019-01-29T03:37:55.785Z,96101.17
2019-01-29T03:38:59.451Z,96104.07
2019-01-29T03:40:03.081Z,96109.37
2019-01-29T03:41:06.721Z,96108.23
2019-01-29T03:42:10.356Z,96104.44
2019-01-29T03:43:13.992Z,96099.09
2019-01-29T03:44:17.630Z,96097.13
2019-01-29T03:45:21.532Z,96102.17
2019-01-29T03:46:25.267Z,96094.28
2019-01-29T03:47:28.899Z,96093.66
2019-01-29T03:48:32.602Z,96091.44
2019-01-29T03:49:36.591Z,96092.72
2019-01-29T03:50:40.581Z,96098.52
2019-01-29T03:51:44.208Z,96086.23
2019-01-29T03:52:47.838Z,96089.30
2019-01-29T03:53:51.469Z,96091.22
2019-01-29T03:54:55.110Z,96092.87
2019-01-29T03:55:58.757Z,96097.44
2019-01-29T03:57:02.382Z,96100.59
2019-01-29T03:58:06.086Z,96101.73
2019-01-29T03:59:09.735Z,96106.94
2019-01-29T04:00:22.295Z,96105.74
2019-01-29T04:01:26.346Z,96110.09
2019-01-29T04:02:30.316Z,96108.28
2019-01-29T04:03:34.347Z,96116.05
2019-01-29T04:04:37.970Z,96117.84
2019-01-29T04:05:41.641Z,96116.67
2019-01-29T04:06:45.267Z,96119.28
2019-01-29T04:07:48.906Z,96119.54
2019-01-29T04:08:52.534Z,96123.58
2019-01-29T04:09:56.167Z,96111.81
2019-01-29T04:10:59.839Z,96114.95
2019-01-29T04:12:03.469Z,96109.75
2019-01-29T04:13:07.106Z,96112.10
2019-01-29T04:14:11.044Z,96114.77
2019-01-29T04:15:16.666Z,96116.80
2019-01-29T04:16:20.333Z,96114.91
2019-01-29T04:17:23.971Z,96115.69
2019-01-29T04:18:27.602Z,96119.92
2019-01-29T04:19:31.234Z,96121.81
2019-01-29T04:20:34.873Z,96117.26
2019-01-29T04:21:38.540Z,96112.37
2019-01-29T04:22:42.163Z,96115.23
2019-01-29T04:23:47.779Z,96119.56
2019-01-29T04:24:51.149Z,96120.80
2019-01-29T04:25:54.778Z,96124.84
2019-01-29T04:26:58.374Z,96119.92
2019-01-29T04:28:02.066Z,96122.17
2019-01-29T04:29:05.702Z,96113.80
2019-01-29T04:30:15.194Z,96112.80
2019-01-29T04:31:18.835Z,96121.27
2019-01-29T04:32:22.506Z,96121.69
2019-01-29T04:33:26.128Z,96122.36
2019-01-29T04:34:29.756Z,96122.23
2019-01-29T04:35:33.393Z,96126.13
2019-01-29T04:36:37.018Z,96132.24
2019-01-29T04:37:40.689Z,96135.47
2019-01-29T04:38:44.323Z,96136.14
2019-01-29T04:39:47.915Z,96134.25
2019-01-29T04:40:51.545Z,96132.24
2019-01-29T04:41:55.561Z,96135.47
2019-01-29T04:42:59.233Z,96135.70
2019-01-29T04:44:02.874Z,96130.59
2019-01-29T04:45:09.176Z,96130.82
2019-01-29T04:46:12.811Z,96133.27
2019-01-29T04:47:16.441Z,96136.81
2019-01-29T04:48:20.113Z,96131.47
2019-01-29T04:49:23.763Z,96137.91
2019-01-29T04:50:27.384Z,96141.28
2019-01-29T04:51:31.038Z,96139.27
2019-01-29T04:52:34.690Z,96129.23
2019-01-29T04:53:38.369Z,96136.83
2019-01-29T04:54:42.086Z,96140.19
2019-01-29T04:55:45.715Z,96136.96
2019-01-29T04:56:49.349Z,96138.40
2019-01-29T04:57:52.993Z,96136.64
2019-01-29T04:58:56.686Z,96137.06
2019-01-29T05:00:00.314Z,96145.96
2019-01-29T05:01:04.159Z,96144.20
2019-01-29T05:02:08.089Z,96153.54
2019-01-29T05:03:11.793Z,96151.06
2019-01-29T05:04:15.462Z,96148.98
2019-01-29T05:05:19.898Z,96146.41
2019-01-29T05:06:23.597Z,96152.88
2019-01-29T05:07:27.251Z,96146.41
2019-01-29T05:08:30.882Z,96146.41
2019-01-29T05:09:34.531Z,96153.95
2019-01-29T05:10:38.160Z,96151.61
2019-01-29T05:11:41.795Z,96152.83
2019-01-29T05:12:45.426Z,96153.50
2019-01-29T05:13:49.063Z,96154.48
2019-01-29T05:14:52.731Z,96158.94
2019-01-29T05:15:56.468Z,96155.48
2019-01-29T05:17:00.177Z,96159.39
2019-01-29T05:18:03.826Z,96160.40
2019-01-29T05:19:07.463Z,96160.37
2019-01-29T05:20:13.657Z,96154.94
2019-01-29T05:21:17.382Z,96154.72
2019-01-29T05:22:21.008Z,96159.52
2019-01-29T05:23:24.648Z,96158.29
2019-01-29T05:24:28.285Z,96161.33
2019-01-29T05:25:31.930Z,96162.66
2019-01-29T05:26:35.575Z,96152.49
2019-01-29T05:27:39.201Z,96156.41
2019-01-29T05:28:42.853Z,96159.11
2019-01-29T05:29:46.516Z,96160.45
2019-01-29T05:30:50.191Z,96158.52
2019-01-29T05:31:54.198Z,96163.34
2019-01-29T05:32:57.833Z,96167.09
2019-01-29T05:34:01.472Z,96169.30
2019-01-29T05:35:07.963Z,96170.86
2019-01-29T05:36:11.628Z,96164.19
2019-01-29T05:37:15.264Z,96162.23
2019-01-29T05:38:18.898Z,96168.73
2019-01-29T05:39:22.536Z,96166.02
2019-01-29T05:40:26.174Z,96169.11
2019-01-29T05:41:29.866Z,96173.80
2019-01-29T05:42:33.508Z,96163.07
2019-01-29T05:43:37.148Z,96161.94
2019-01-29T05:44:40.881Z,96168.39
2019-01-29T05:45:44.522Z,96161.39
2019-01-29T05:46:48.175Z,96163.92
2019-01-29T05:47:51.895Z,96164.58
2019-01-29T05:48:55.533Z,96163.02
2019-01-29T05:49:59.169Z,96158.91
2019-01-29T05:51:02.809Z,96165.45
2019-01-29T05:52:06.467Z,96164.35
2019-01-29T05:53:10.102Z,96161.45
2019-01-29T05:54:16.482Z,96170.81
2019-01-29T05:55:19.037Z,96171.42
2019-01-29T05:56:22.993Z,96168.09
2019-01-29T05:57:26.676Z,96166.20
2019-01-29T05:58:30.312Z,96162.30
2019-01-29T05:59:33.943Z,96166.73
2019-01-29T06:00:39.452Z,96166.42
2019-01-29T06:01:43.086Z,96165.86
2019-01-29T06:02:48.527Z,96164.09
2019-01-29T06:03:52.463Z,96169.66
2019-01-29T06:04:56.105Z,96173.11
2019-01-29T06:05:59.752Z,96175.43
2019-01-29T06:07:03.393Z,96168.09
2019-01-29T06:08:07.063Z,96172.56
2019-01-29T06:09:10.696Z,96177.44
2019-01-29T06:10:16.742Z,96176.10
2019-01-29T06:11:20.478Z,96172.76
2019-01-29T06:12:24.415Z,96172.67
2019-01-29T06:13:28.204Z,96172.34
2019-01-29T06:14:31.847Z,96178.38
2019-01-29T06:15:35.559Z,96175.73
2019-01-29T06:16:39.207Z,96176.77
2019-01-29T06:17:42.849Z,96176.20
2019-01-29T06:18:46.522Z,96179.59
2019-01-29T06:19:50.158Z,96177.14
2019-01-29T06:20:53.792Z,96167.98
2019-01-29T06:21:57.429Z,96172.00
2019-01-29T06:23:01.069Z,96178.68
2019-01-29T06:24:04.742Z,96182.91
2019-01-29T06:25:08.450Z,96186.92
2019-01-29T06:26:12.160Z,96190.84
2019-01-29T06:27:15.924Z,96187.58
2019-01-29T06:28:19.555Z,96193.51
2019-01-29T06:29:23.707Z,96191.94
2019-01-29T06:30:27.643Z,96194.48
2019-01-29T06:31:31.273Z,96202.86
2019-01-29T06:32:34.913Z,96202.96
2019-01-29T06:33:38.551Z,96202.73
2019-01-29T06:34:42.607Z,96200.28
2019-01-29T06:35:46.237Z,96200.84
2019-01-29T06:36:50.995Z,96208.42
2019-01-29T06:37:54.686Z,96208.52
2019-01-29T06:38:59.846Z,96212.75
2019-01-29T06:40:04.297Z,96207.63
2019-01-29T06:41:07.970Z,96213.73
2019-01-29T06:42:11.893Z,96215.86
2019-01-29T06:43:15.586Z,96211.53
2019-01-29T06:44:19.279Z,96218.31
2019-01-29T06:45:24.769Z,96216.55
2019-01-29T06:46:28.406Z,96214.30
2019-01-29T06:47:32.111Z,96216.76
2019-01-29T06:48:36.017Z,96215.30
2019-01-29T06:49:39.707Z,96219.86
2019-01-29T06:50:43.349Z,96216.98
2019-01-29T06:51:46.982Z,96224.41
2019-01-29T06:52:50.840Z,96227.09
2019-01-29T06:53:54.477Z,96221.73
2019-01-29T06:54:59.892Z,96214.38
2019-01-29T06:56:03.531Z,96219.00
2019-01-29T06:57:07.200Z,96214.77
2019-01-29T06:58:10.839Z,96211.20
2019-01-29T06:59:14.474Z,96221.66
2019-01-29T07:00:24.087Z,96213.64
2019-01-29T07:01:27.724Z,96224.33
2019-01-29T07:02:31.472Z,96224.33
2019-01-29T07:03:35.115Z,96221.61
2019-01-29T07:04:38.747Z,96228.73
2019-01-29T07:05:42.815Z,96225.81
2019-01-29T07:06:46.451Z,96221.37
2019-01-29T07:07:50.091Z,96226.79
2019-01-29T07:08:53.736Z,96225.81
2019-01-29T07:09:57.373Z,96232.48
2019-01-29T07:11:01.021Z,96230.34
2019-01-29T07:12:04.671Z,96227.77
2019-01-29T07:13:08.326Z,96232.78
2019-01-29T07:14:11.961Z,96232.00
2019-01-29T07:15:39.498Z,96223.09
2019-01-29T07:16:44.794Z,96227.09
2019-01-29T07:17:49.655Z,96223.64
2019-01-29T07:18:57.647Z,96230.09
2019-01-29T07:20:01.284Z,96222.29
2019-01-29T07:21:07.271Z,96226.50
2019-01-29T07:22:12.145Z,96224.70
2019-01-29T07:23:15.828Z,96227.48
2019-01-29T07:24:19.464Z,96225.92
2019-01-29T07:25:23.104Z,96233.50
2019-01-29T07:26:26.926Z,96230.83
2019-01-29T07:27:30.607Z,96230.80
2019-01-29T07:28:34.713Z,96235.06
2019-01-29T07:29:38.351Z,96233.72
2019-01-29T07:30:42.066Z,96239.96
2019-01-29T07:31:45.734Z,96240.05
2019-01-29T07:32:49.372Z,96240.59
2019-01-29T07:33:53.014Z,96240.37
2019-01-29T07:34:56.640Z,96237.93
2019-01-29T07:36:00.268Z,96244.14
2019-01-29T07:37:03.946Z,96244.80
2019-01-29T07:38:07.585Z,96242.25
2019-01-29T07:39:11.222Z,96248.14
2019-01-29T07:40:15.008Z,96252.34
2019-01-29T07:41:18.672Z,96247.44
2019-01-29T07:42:22.353Z,96251.33
2019-01-29T07:43:25.982Z,96251.87
2019-01-29T07:44:29.622Z,96255.05
2019-01-29T07:45:33.320Z,96252.02
2019-01-29T07:46:36.964Z,96246.34
2019-01-29T07:47:40.649Z,96259.19
2019-01-29T07:48:44.281Z,96258.64
2019-01-29T07:49:49.795Z,96260.27
2019-01-29T07:50:53.498Z,96257.36
2019-01-29T07:51:57.502Z,96257.02
2019-01-29T07:53:01.267Z,96256.81
2019-01-29T07:54:05.301Z,96258.17
2019-01-29T07:55:10.442Z,96256.64
2019-01-29T07:56:14.078Z,96255.77
2019-01-29T07:57:17.716Z,96261.77
2019-01-29T07:58:21.376Z,96251.56
2019-01-29T07:59:32.668Z,96260.35
2019-01-29T08:00:30.371Z,96260.23
2019-01-29T08:01:34.392Z,96264.91
2019-01-29T08:02:38.038Z,96268.50
2019-01-29T08:03:41.703Z,96266.84
2019-01-29T08:04:45.344Z,96263.05
2019-01-29T08:05:48.978Z,96268.52
2019-01-29T08:06:52.616Z,96267.39
2019-01-29T08:07:56.264Z,96267.09
2019-01-29T08:08:59.928Z,96269.23
2019-01-29T08:10:03.832Z,96265.89
2019-01-29T08:11:07.470Z,96263.34
2019-01-29T08:12:11.293Z,96266.77
2019-01-29T08:13:15.034Z,96263.17
2019-01-29T08:14:20.555Z,96271.88
2019-01-29T08:15:24.462Z,96270.55
2019-01-29T08:16:28.092Z,96271.09
2019-01-29T08:17:31.801Z,96275.86
2019-01-29T08:18:35.526Z,96277.64
2019-01-29T08:19:39.257Z,96279.06
2019-01-29T08:20:42.890Z,96278.08
2019-01-29T08:21:46.536Z,96276.73
2019-01-29T08:22:50.176Z,96282.75
2019-01-29T08:23:53.822Z,96282.52
2019-01-29T08:25:01.877Z,96280.10
2019-01-29T08:26:02.849Z,96280.80
2019-01-29T08:27:08.584Z,96283.03
2019-01-29T08:28:12.019Z,96283.09
2019-01-29T08:29:16.048Z,96283.75
2019-01-29T08:30:20.229Z,96284.99
2019-01-29T08:31:23.980Z,96285.90
2019-01-29T08:32:27.638Z,96284.81
2019-01-29T08:33:31.279Z,96285.80
2019-01-29T08:34:34.995Z,96287.05
2019-01-29T08:35:38.770Z,96295.17
2019-01-29T08:36:42.407Z,96288.26
2019-01-29T08:37:46.168Z,96292.95
2019-01-29T08:38:49.773Z,96292.93
2019-01-29T08:39:53.419Z,96299.27
2019-01-29T08:40:57.076Z,96302.94
2019-01-29T08:42:00.808Z,96299.92
2019-01-29T08:43:04.439Z,96301.59
2019-01-29T08:44:08.074Z,96300.50
2019-01-29T08:45:14.394Z,96304.30
2019-01-29T08:46:18.080Z,96308.75
2019-01-29T08:47:21.732Z,96313.11
2019-01-29T08:48:25.729Z,96315.45
2019-01-29T08:49:29.424Z,96312.77
2019-01-29T08:50:33.065Z,96317.13
2019-01-29T08:51:36.734Z,96317.23
2019-01-29T08:52:40.398Z,96311.13
2019-01-29T08:53:44.034Z,96317.45
2019-01-29T08:54:47.667Z,96318.34
2019-01-29T08:55:51.399Z,96316.45
2019-01-29T08:56:55.043Z,96322.58
2019-01-29T08:57:58.679Z,96321.14
2019-01-29T08:59:02.315Z,96322.38
2019-01-29T09:00:09.258Z,96320.80
2019-01-29T09:01:12.900Z,96322.36
2019-01-29T09:02:16.641Z,96321.58
2019-01-29T09:03:20.447Z,96319.78
2019-01-29T09:04:24.104Z,96325.69
2019-01-29T09:05:27.741Z,96323.34
2019-01-29T09:06:31.374Z,96327.92
2019-01-29T09:07:35.058Z,96328.72
2019-01-29T09:08:38.689Z,96324.12
2019-01-29T09:09:42.330Z,96324.58
2019-01-29T09:10:46.062Z,96330.38
2019-01-29T09:11:49.697Z,96327.80
2019-01-29T09:12:54.391Z,96327.80
2019-01-29T09:13:58.026Z,96321.90
2019-01-29T09:15:01.746Z,96325.91
2019-01-29T09:16:05.478Z,96329.37
2019-01-29T09:17:09.138Z,96322.13
2019-01-29T09:18:12.884Z,96323.92
2019-01-29T09:19:16.515Z,96325.48
2019-01-29T09:20:21.825Z,96327.93
2019-01-29T09:21:25.461Z,96328.59
2019-01-29T09:22:29.167Z,96329.92
2019-01-29T09:23:32.838Z,96327.48
2019-01-29T09:24:36.470Z,96324.12
2019-01-29T09:25:40.136Z,96325.03
2019-01-29T09:26:43.785Z,96328.59
2019-01-29T09:27:50.789Z,96324.91
2019-01-29T09:28:54.418Z,96328.91
2019-01-29T09:29:58.055Z,96321.90
2019-01-29T09:31:02.161Z,96318.90
2019-01-29T09:32:05.841Z,96317.46
2019-01-29T09:33:09.565Z,96319.45
2019-01-29T09:34:13.202Z,96316.45
2019-01-29T09:35:16.912Z,96315.11
2019-01-29T09:36:20.551Z,96316.55
2019-01-29T09:37:24.236Z,96315.90
2019-01-29T09:38:27.870Z,96315.90
2019-01-29T09:39:31.542Z,96313.42
2019-01-29T09:40:35.196Z,96310.74
2019-01-29T09:41:38.836Z,96313.28
2019-01-29T09:42:42.601Z,96305.28
2019-01-29T09:43:46.250Z,96303.59
2019-01-29T09:44:49.931Z,96302.48
2019-01-29T09:45:53.652Z,96302.62
2019-01-29T09:46:57.287Z,96304.51
2019-01-29T09:48:01.028Z,96301.60
2019-01-29T09:49:04.776Z,96307.83
2019-01-29T09:50:11.520Z,96302.38
2019-01-29T09:51:15.262Z,96301.47
2019-01-29T09:52:18.928Z,96300.03
2019-01-29T09:53:22.740Z,96299.48
2019-01-29T09:54:26.380Z,96298.92
2019-01-29T09:55:30.197Z,96292.42
2019-01-29T09:56:33.871Z,96298.00
2019-01-29T09:57:38.986Z,96297.78
2019-01-29T09:58:42.658Z,96297.81
2019-01-29T09:59:46.297Z,96296.72
2019-01-29T10:00:50.818Z,96297.27
2019-01-29T10:01:54.477Z,96295.84
2019-01-29T10:02:58.267Z,96288.92
2019-01-29T10:04:01.974Z,96293.84
2019-01-29T10:05:08.330Z,96288.27
2019-01-29T10:06:12.058Z,96292.05
2019-01-29T10:07:15.680Z,96289.05
2019-01-29T10:08:19.317Z,96282.92
2019-01-29T10:09:23.063Z,96287.58
2019-01-29T10:10:26.861Z,96285.79
2019-01-29T10:11:30.724Z,96279.10
2019-01-29T10:12:35.642Z,96284.58
2019-01-29T10:13:41.931Z,96278.77
2019-01-29T10:14:46.228Z,96282.78
2019-01-29T10:15:49.951Z,96278.17
2019-01-29T10:16:53.767Z,96282.19
2019-01-29T10:17:58.944Z,96274.16
2019-01-29T10:19:02.608Z,96269.82
2019-01-29T10:20:07.530Z,96268.84
2019-01-29T10:21:11.232Z,96270.38
2019-01-29T10:22:15.062Z,96271.39
2019-01-29T10:23:18.767Z,96261.60
2019-01-29T10:24:22.668Z,96271.52
2019-01-29T10:25:26.812Z,96267.16
2019-01-29T10:26:30.550Z,96262.81
2019-01-29T10:27:34.271Z,96261.70
2019-01-29T10:28:38.003Z,96260.69
2019-01-29T10:29:41.701Z,96260.14
2019-01-29T10:30:45.470Z,96264.46
2019-01-29T10:31:49.195Z,96261.77
2019-01-29T10:32:53.569Z,96261.45
2019-01-29T10:33:59.951Z,96259.25
2019-01-29T10:35:07.131Z,96267.23
2019-01-29T10:36:10.838Z,96262.80
2019-01-29T10:37:14.594Z,96264.79
2019-01-29T10:38:18.246Z,96269.25
2019-01-29T10:39:21.961Z,96267.69
2019-01-29T10:40:27.228Z,96274.37
2019-01-29T10:41:30.962Z,96279.73
2019-01-29T10:42:34.598Z,96275.95
2019-01-29T10:43:38.233Z,96277.95
2019-01-29T10:44:41.917Z,96282.42
2019-01-29T10:45:45.632Z,96276.42
2019-01-29T10:46:49.595Z,96277.77
2019-01-29T10:47:53.232Z,96283.34
2019-01-29T10:48:56.870Z,96277.99
2019-01-29T10:50:00.585Z,96276.98
2019-01-29T10:51:04.363Z,96278.45
2019-01-29T10:52:08.100Z,96275.09
2019-01-29T10:53:11.744Z,96276.10
2019-01-29T10:54:15.372Z,96271.44
2019-01-29T10:55:19.526Z,96270.66
2019-01-29T10:56:23.162Z,96273.75
2019-01-29T10:57:26.798Z,96269.97
2019-01-29T10:58:30.436Z,96275.13
2019-01-29T10:59:34.087Z,96274.44
2019-01-29T11:00:40.330Z,96260.61
2019-01-29T11:01:44.023Z,96270.09
2019-01-29T11:02:47.995Z,96270.52
2019-01-29T11:03:51.634Z,96263.17
2019-01-29T11:04:55.559Z,96265.95
2019-01-29T11:05:59.255Z,96263.28
2019-01-29T11:07:03.317Z,96266.73
2019-01-29T11:08:06.977Z,96263.64
2019-01-29T11:09:11.737Z,96258.30
2019-01-29T11:10:17.521Z,96266.41
2019-01-29T11:11:21.154Z,96263.52
2019-01-29T11:12:24.808Z,96259.08
2019-01-29T11:13:28.471Z,96260.64
2019-01-29T11:14:32.112Z,96257.38
2019-01-29T11:15:38.059Z,96259.50
2019-01-29T11:16:42.689Z,96262.53
2019-01-29T11:17:46.336Z,96264.20
2019-01-29T11:18:50.031Z,96267.55
2019-01-29T11:19:53.665Z,96271.77
2019-01-29T11:20:57.383Z,96269.09
2019-01-29T11:22:01.025Z,96274.47
2019-01-29T11:23:05.264Z,96272.45
2019-01-29T11:24:08.914Z,96271.98
2019-01-29T11:25:23.798Z,96270.88
2019-01-29T11:26:27.437Z,96266.31
2019-01-29T11:27:31.142Z,96271.98
2019-01-29T11:28:34.884Z,96264.42
2019-01-29T11:29:38.733Z,96273.33
2019-01-29T11:30:42.474Z,96271.89
2019-01-29T11:31:46.186Z,96266.09
2019-01-29T11:32:49.863Z,96266.64
2019-01-29T11:33:53.502Z,96263.28
2019-01-29T11:34:57.212Z,96258.84
2019-01-29T11:36:00.882Z,96261.95
2019-01-29T11:37:05.019Z,96259.50
2019-01-29T11:38:08.702Z,96265.08
2019-01-29T11:39:12.443Z,96265.64
2019-01-29T11:40:24.644Z,96263.52
2019-01-29T11:41:28.345Z,96267.09
2019-01-29T11:42:31.985Z,96263.61
2019-01-29T11:43:35.657Z,96256.41
2019-01-29T11:44:39.366Z,96259.50
2019-01-29T11:45:46.003Z,96263.05
2019-01-29T11:46:49.631Z,96255.81
2019-01-29T11:47:53.269Z,96258.61
2019-01-29T11:48:56.958Z,96263.05
2019-01-29T11:50:00.942Z,96261.39
2019-01-29T11:51:04.773Z,96252.81
2019-01-29T11:52:08.484Z,96253.59
2019-01-29T11:53:12.118Z,96256.17
2019-01-29T11:54:15.788Z,96257.70
2019-01-29T11:55:19.517Z,96258.38
2019-01-29T11:56:23.151Z,96253.13
2019-01-29T11:57:26.792Z,96253.68
2019-01-29T11:58:30.439Z,96260.82
2019-01-29T11:59:34.124Z,96254.56
2019-01-29T12:00:40.201Z,96251.23
2019-01-29T12:01:43.839Z,96254.77
2019-01-29T12:02:47.478Z,96253.90
2019-01-29T12:03:51.115Z,96256.11
2019-01-29T12:04:54.791Z,96261.33
2019-01-29T12:05:58.423Z,96259.80
2019-01-29T12:07:02.129Z,96261.70
2019-01-29T12:08:07.074Z,96256.69
2019-01-29T12:09:10.914Z,96254.55
2019-01-29T12:10:15.446Z,96252.80
2019-01-29T12:11:19.156Z,96248.78
2019-01-29T12:12:23.174Z,96246.05
2019-01-29T12:13:26.813Z,96246.02
2019-01-29T12:14:30.454Z,96248.77
2019-01-29T12:15:34.123Z,96251.31
2019-01-29T12:16:37.762Z,96243.28
2019-01-29T12:17:41.400Z,96247.01
2019-01-29T12:18:45.050Z,96249.58
2019-01-29T12:19:48.766Z,96249.89
2019-01-29T12:20:52.441Z,96243.99
2019-01-29T12:21:56.081Z,96241.88
2019-01-29T12:22:59.733Z,96246.83
2019-01-29T12:24:03.364Z,96244.48
2019-01-29T12:25:07.804Z,96248.55
2019-01-29T12:26:13.324Z,96246.50
2019-01-29T12:27:17.814Z,96247.09
2019-01-29T12:28:21.683Z,96249.96
2019-01-29T12:29:25.401Z,96245.83
2019-01-29T12:30:30.342Z,96247.69
2019-01-29T12:31:34.090Z,96246.69